Time;durP1;ratioP1;P1;durP2;ratioP2;P2;SDS_P1;SDS_P2;PMS_P1;PMS_P2;Temp;Humidity;BMP_temperature;BMP_pressure;BME280_temperature;BME280_humidity;BME280_pressure;Samples;Min_cycle;Max_cycle;Signal;HPM_P1;HPM_P2
2020/12/24 00:01:03;;;;;;;313.12;149.97;;;;;;;3.01;81.27;94380.26;1779719;80;21080;-55
2020/12/24 00:03:31;;;;;;;352.62;160.45;;;;;;;2.98;81.19;94381.08;1779808;80;21209;-55
2020/12/24 00:05:59;;;;;;;326.95;149.12;;;;;;;2.90;81.31;94376.92;1779704;80;21075;-56
2020/12/24 00:08:28;;;;;;;280.87;131.15;;;;;;;2.85;81.46;94377.38;1779724;80;21488;-56
2020/12/24 00:10:56;;;;;;;326.40;146.53;;;;;;;2.83;81.54;94372.95;1779632;80;21126;-56
2020/12/24 00:13:25;;;;;;;307.02;143.60;;;;;;;2.80;81.78;94375.87;1779766;80;21131;-55
2020/12/24 00:15:53;;;;;;;274.75;133.15;;;;;;;2.87;82.19;94375.02;1779872;80;21131;-55
2020/12/24 00:18:21;;;;;;;289.30;133.65;;;;;;;3.01;82.21;94374.25;1779685;80;21182;-54
2020/12/24 00:20:50;;;;;;;319.98;145.75;;;;;;;3.07;81.78;94385.44;1779665;80;21208;-55
2020/12/24 00:23:18;;;;;;;300.87;137.60;;;;;;;3.02;81.54;94384.55;1779562;80;21088;-55
2020/12/24 00:25:47;;;;;;;311.80;140.20;;;;;;;2.96;81.64;94383.44;1779642;80;21060;-55
2020/12/24 00:28:15;;;;;;;297.75;143.75;;;;;;;2.92;81.78;94388.94;1779829;80;21064;-55
2020/12/24 00:30:43;;;;;;;289.98;135.37;;;;;;;2.98;82.13;94389.23;1779659;80;21088;-55
2020/12/24 00:33:13;;;;;;;273.90;137.05;;;;;;;3.04;81.82;94391.70;1779757;80;21391;-55
2020/12/24 00:35:42;;;;;;;268.75;129.53;;;;;;;3.07;81.83;94399.02;1779644;80;21136;-59
2020/12/24 00:38:11;;;;;;;254.28;133.15;;;;;;;3.06;81.46;94398.24;1779710;80;21078;-55
2020/12/24 00:40:40;;;;;;;176.60;94.87;;;;;;;2.98;81.50;94397.38;1779740;80;21071;-54
2020/12/24 00:43:08;;;;;;;216.65;116.50;;;;;;;2.94;81.56;94391.22;1779716;80;21131;-55
2020/12/24 00:45:37;;;;;;;241.30;124.18;;;;;;;2.90;81.70;94386.43;1779780;80;21511;-55
2020/12/24 00:48:06;;;;;;;183.97;92.82;;;;;;;2.92;81.96;94378.64;1779577;80;21109;-55
2020/12/24 00:50:34;;;;;;;198.80;101.80;;;;;;;3.01;81.96;94384.33;1779611;80;21127;-54
2020/12/24 00:53:03;;;;;;;186.32;98.15;;;;;;;3.09;82.24;94367.53;1779636;80;21119;-54
2020/12/24 00:55:32;;;;;;;166.82;91.02;;;;;;;3.22;82.17;94373.21;1757936;80;21122;-55
2020/12/24 00:58:02;;;;;;;182.60;100.95;;;;;;;3.32;81.89;94372.27;1779672;80;21279;-55
2020/12/24 01:00:32;;;;;;;179.00;96.55;;;;;;;3.33;81.65;94368.37;1779705;80;21187;-55
2020/12/24 01:03:00;;;;;;;166.90;94.03;;;;;;;3.40;81.88;94366.94;1779731;80;21194;-56
2020/12/24 01:05:28;;;;;;;165.22;90.97;;;;;;;3.49;81.57;94367.35;1779741;80;21175;-56
2020/12/24 01:07:56;;;;;;;157.35;91.65;;;;;;;3.55;81.20;94349.99;1779660;80;21061;-55
2020/12/24 01:10:25;;;;;;;184.43;100.90;;;;;;;3.57;81.12;94340.83;1779781;80;22095;-55
2020/12/24 01:12:53;;;;;;;173.80;94.87;;;;;;;3.59;81.00;94341.19;1779557;80;21131;-55
2020/12/24 01:15:22;;;;;;;210.70;108.30;;;;;;;3.64;81.12;94338.77;1779527;80;21190;-57
2020/12/24 01:17:50;;;;;;;282.37;139.45;;;;;;;3.70;80.78;94330.91;1779670;80;21064;-54
2020/12/24 01:20:18;;;;;;;228.00;116.80;;;;;;;3.72;80.64;94334.73;1779655;80;21065;-54
2020/12/24 01:22:47;;;;;;;176.15;89.87;;;;;;;3.72;80.38;94333.98;1779634;80;22193;-57
2020/12/24 01:25:15;;;;;;;180.30;97.60;;;;;;;3.66;80.41;94315.25;1779703;80;21151;-55
2020/12/24 01:27:44;;;;;;;169.22;96.08;;;;;;;3.64;80.57;94318.95;1779622;80;21112;-55
2020/12/24 01:30:12;;;;;;;158.03;87.40;;;;;;;3.62;80.59;94318.02;1779704;80;21064;-54
2020/12/24 01:32:40;;;;;;;141.68;80.12;;;;;;;3.64;80.80;94310.21;1779579;80;21079;-55
2020/12/24 01:35:09;;;;;;;164.22;91.12;;;;;;;3.66;80.53;94316.00;1779451;80;22373;-55
2020/12/24 01:37:37;;;;;;;185.82;100.40;;;;;;;3.58;80.28;94306.44;1779500;80;21163;-55
2020/12/24 01:40:05;;;;;;;181.90;96.10;;;;;;;3.48;80.18;94294.95;1779765;80;21132;-54
2020/12/24 01:42:36;;;;;;;140.12;79.92;;;;;;;3.40;80.56;94288.09;1779702;80;21611;-56
2020/12/24 01:45:05;;;;;;;164.47;90.42;;;;;;;3.40;80.76;94288.09;1779586;80;21139;-55
2020/12/24 01:47:34;;;;;;;163.35;92.80;;;;;;;3.41;80.80;94291.75;1779706;80;21152;-56
2020/12/24 01:50:04;;;;;;;167.93;91.20;;;;;;;3.44;80.89;94282.76;1779645;80;21083;-55
2020/12/24 01:52:38;;;;;;;156.67;86.42;;;;;;;3.47;80.82;94278.45;1779736;80;21547;-55
2020/12/24 01:55:09;;;;;;;157.60;83.12;;;;;;;3.47;80.48;94270.30;1779618;80;21583;-55
2020/12/24 01:57:38;;;;;;;153.53;84.03;;;;;;;3.38;80.37;94259.20;1779666;80;21067;-55
2020/12/24 02:00:09;;;;;;;134.67;77.25;;;;;;;3.33;80.63;94247.42;1779607;80;21521;-56
2020/12/24 02:02:40;;;;;;;112.37;69.62;;;;;;;3.32;80.64;94248.59;1779565;80;21075;-56
2020/12/24 02:05:08;;;;;;;115.08;68.30;;;;;;;3.28;80.67;94247.89;1779607;80;21139;-55
2020/12/24 02:07:37;;;;;;;125.10;72.20;;;;;;;3.21;81.01;94243.94;1779524;80;21131;-56
2020/12/24 02:10:06;;;;;;;112.92;67.50;;;;;;;3.20;81.18;94224.74;1779608;80;21057;-54
2020/12/24 02:12:35;;;;;;;114.95;66.42;;;;;;;3.22;81.16;94215.58;1779566;80;21211;-55
2020/12/24 02:15:04;;;;;;;107.17;66.15;;;;;;;3.16;81.04;94198.19;1779552;80;21567;-56
2020/12/24 02:17:32;;;;;;;123.85;71.75;;;;;;;3.16;81.20;94198.19;1779561;80;21126;-57
2020/12/24 02:20:03;;;;;;;107.55;64.42;;;;;;;3.09;81.21;94188.81;1779555;80;21150;-55
2020/12/24 02:22:31;;;;;;;102.02;59.88;;;;;;;3.09;81.56;94199.67;1779735;80;21559;-55
2020/12/24 02:25:00;;;;;;;125.62;69.15;;;;;;;3.10;81.36;94209.36;1779606;80;21436;-56
2020/12/24 02:27:28;;;;;;;130.27;71.30;;;;;;;3.03;81.39;94214.92;1779705;80;21516;-54
2020/12/24 02:30:01;;;;;;;116.75;69.70;;;;;;;3.01;81.59;94209.88;1779614;80;21052;-54
2020/12/24 02:32:27;;;;;;;123.35;72.60;;;;;;;3.04;81.68;94209.05;1779398;80;21075;-59
2020/12/24 02:34:56;;;;;;;112.47;68.07;;;;;;;3.07;81.76;94211.55;1779421;80;21092;-56
2020/12/24 02:37:24;;;;;;;109.48;67.30;;;;;;;3.13;81.91;94200.37;1779670;80;21364;-55
2020/12/24 02:39:54;;;;;;;118.62;68.83;;;;;;;3.17;81.77;94205.16;1779720;80;21116;-55
2020/12/24 02:42:23;;;;;;;117.08;68.52;;;;;;;3.20;81.64;94212.52;1779826;80;21578;-55
2020/12/24 02:44:52;;;;;;;99.60;62.20;;;;;;;3.20;81.37;94204.36;1779643;80;21235;-55
2020/12/24 02:47:21;;;;;;;108.22;62.13;;;;;;;3.20;81.46;94196.20;1779821;80;21668;-55
2020/12/24 02:49:51;;;;;;;109.67;60.83;;;;;;;3.22;81.45;94195.20;1778672;80;21195;-55
2020/12/24 02:52:19;;;;;;;97.25;55.73;;;;;;;3.26;81.67;94183.06;1779630;80;21083;-55
2020/12/24 02:54:49;;;;;;;94.65;54.33;;;;;;;3.31;81.33;94186.69;1779611;80;21138;-55
2020/12/24 02:57:17;;;;;;;108.37;63.40;;;;;;;3.33;81.46;94191.70;1779685;80;21052;-55
2020/12/24 02:59:47;;;;;;;105.22;58.50;;;;;;;3.40;81.37;94187.52;1777207;80;21094;-56
2020/12/24 03:02:17;;;;;;;126.47;72.53;;;;;;;3.43;81.14;94190.16;1779784;80;21387;-56
2020/12/24 03:04:45;;;;;;;132.70;73.85;;;;;;;3.34;80.68;94177.70;1779645;80;21063;-55
2020/12/24 03:07:13;;;;;;;117.42;68.12;;;;;;;3.21;80.70;94181.44;1779681;80;21159;-55
2020/12/24 03:09:42;;;;;;;119.65;71.02;;;;;;;3.12;81.00;94180.61;1779663;80;21162;-54
2020/12/24 03:12:11;;;;;;;107.60;61.55;;;;;;;3.10;81.16;94183.55;1779753;80;21579;-55
2020/12/24 03:14:39;;;;;;;122.00;68.95;;;;;;;3.09;81.36;94177.33;1779677;80;21454;-55
2020/12/24 03:17:10;;;;;;;116.75;66.37;;;;;;;3.05;81.30;94169.09;1779686;80;21115;-55
2020/12/24 03:19:38;;;;;;;123.30;70.20;;;;;;;2.97;81.31;94160.28;1779753;80;21096;-55
2020/12/24 03:22:07;;;;;;;120.15;71.82;;;;;;;2.94;81.79;94167.91;1779801;80;21064;-55
2020/12/24 03:24:36;;;;;;;169.13;89.45;;;;;;;3.00;81.84;94166.23;1779882;80;21575;-55
2020/12/24 03:27:04;;;;;;;151.05;79.00;;;;;;;2.99;81.76;94167.42;1779882;80;21151;-55
2020/12/24 03:29:33;;;;;;;159.90;81.37;;;;;;;3.03;82.19;94155.91;1779811;80;21607;-55
2020/12/24 03:32:02;;;;;;;132.18;73.10;;;;;;;3.07;81.79;94158.56;1779822;80;21159;-54
2020/12/24 03:34:30;;;;;;;168.45;89.07;;;;;;;3.03;81.81;94164.66;1779799;80;21147;-55
2020/12/24 03:36:58;;;;;;;173.13;96.63;;;;;;;3.06;82.05;94174.70;1779845;80;21488;-55
2020/12/24 03:39:27;;;;;;;127.82;73.05;;;;;;;3.13;82.16;94169.92;1779832;80;21420;-54
2020/12/24 03:41:55;;;;;;;123.62;70.52;;;;;;;3.14;81.90;94158.44;1779811;80;21103;-54
2020/12/24 03:44:24;;;;;;;116.65;64.92;;;;;;;3.11;82.03;94147.83;1779873;80;21111;-55
2020/12/24 03:46:53;;;;;;;98.05;58.02;;;;;;;3.17;82.19;94142.66;1779858;80;21131;-56
2020/12/24 03:49:21;;;;;;;108.17;61.90;;;;;;;3.24;82.09;94128.36;1779867;80;21055;-55
2020/12/24 03:51:50;;;;;;;148.00;80.00;;;;;;;3.29;82.06;94125.19;1779804;80;21370;-54
2020/12/24 03:54:18;;;;;;;148.87;78.35;;;;;;;3.33;81.81;94118.31;1779818;80;21496;-55
2020/12/24 03:56:48;;;;;;;101.30;58.05;;;;;;;3.29;81.61;94131.98;1779778;80;21064;-54
2020/12/24 03:59:16;;;;;;;100.95;57.98;;;;;;;3.23;81.57;94114.59;1779835;80;21125;-54
2020/12/24 04:01:45;;;;;;;95.05;51.73;;;;;;;3.22;81.83;94120.47;1779824;80;21091;-55
2020/12/24 04:04:13;;;;;;;96.63;55.17;;;;;;;3.25;81.87;94104.69;1779803;80;21447;-54
2020/12/24 04:06:41;;;;;;;102.78;57.40;;;;;;;3.28;81.91;94115.47;1779804;80;21512;-55
2020/12/24 04:09:11;;;;;;;97.15;57.38;;;;;;;3.32;81.91;94118.13;1779828;80;21064;-54
2020/12/24 04:11:39;;;;;;;116.67;67.03;;;;;;;3.37;82.01;94108.13;1779787;80;21068;-54
2020/12/24 04:14:07;;;;;;;140.97;85.87;;;;;;;3.41;81.83;94115.66;1779948;80;21080;-55
2020/12/24 04:16:36;;;;;;;126.02;71.60;;;;;;;3.45;81.72;94097.32;1779755;80;21360;-55
2020/12/24 04:19:04;;;;;;;130.05;74.00;;;;;;;3.42;81.28;94088.03;1779767;80;21503;-55
2020/12/24 04:21:33;;;;;;;118.37;70.42;;;;;;;3.30;81.33;94103.63;1779805;80;21143;-55
2020/12/24 04:24:02;;;;;;;134.15;82.05;;;;;;;3.29;81.63;94098.59;1779809;80;21187;-55
2020/12/24 04:26:30;;;;;;;128.60;75.32;;;;;;;3.33;81.88;94095.20;1779861;80;21084;-54
2020/12/24 04:28:59;;;;;;;128.20;75.83;;;;;;;3.35;81.61;94084.10;1779693;80;21196;-55
2020/12/24 04:31:28;;;;;;;126.40;72.35;;;;;;;3.36;81.67;94085.64;1779768;80;21690;-55
2020/12/24 04:33:56;;;;;;;87.92;53.23;;;;;;;3.40;81.47;94072.73;1779802;80;21135;-55
2020/12/24 04:36:24;;;;;;;106.67;64.77;;;;;;;3.43;81.31;94073.26;1779695;80;21067;-55
2020/12/24 04:38:53;;;;;;;134.85;84.22;;;;;;;3.40;81.48;94068.66;1779803;80;21123;-55
2020/12/24 04:41:21;;;;;;;131.50;76.97;;;;;;;3.41;81.30;94074.27;1779722;80;21381;-55
2020/12/24 04:43:50;;;;;;;159.32;103.05;;;;;;;3.40;81.28;94095.09;1779791;80;21702;-55
2020/12/24 04:46:18;;;;;;;153.23;86.40;;;;;;;3.37;81.30;94106.77;1779783;80;21072;-56
2020/12/24 04:48:47;;;;;;;112.15;69.27;;;;;;;3.38;81.43;94113.77;1779816;80;21488;-55
2020/12/24 04:51:19;;;;;;;91.42;55.63;;;;;;;3.41;81.28;94107.50;1779754;80;21076;-55
2020/12/24 04:53:48;;;;;;;97.95;54.85;;;;;;;3.37;80.92;94108.13;1779792;80;21437;-55
2020/12/24 04:56:18;;;;;;;86.53;53.92;;;;;;;3.31;81.41;94092.14;1779695;80;21507;-55
2020/12/24 04:58:46;;;;;;;88.03;53.90;;;;;;;3.35;81.51;94090.12;1779809;80;21047;-55
2020/12/24 05:01:15;;;;;;;97.75;54.10;;;;;;;3.41;81.44;94074.88;1779795;80;21152;-55
2020/12/24 05:03:43;;;;;;;88.47;51.90;;;;;;;3.41;81.18;94070.80;1779767;80;21167;-54
2020/12/24 05:06:18;;;;;;;86.50;54.13;;;;;;;3.34;81.08;94079.07;1779827;80;21201;-55
2020/12/24 05:08:58;;;;;;;88.07;55.63;;;;;;;3.33;81.34;94078.90;1779678;80;21068;-55
2020/12/24 05:11:32;;;;;;;85.83;55.20;;;;;;;3.28;81.42;94060.36;1779787;80;21072;-54
2020/12/24 05:14:25;;;;;;;85.70;53.25;;;;;;;3.24;81.69;94070.54;1779691;80;21497;-56
2020/12/24 05:17:07;;;;;;;88.83;55.80;;;;;;;3.25;82.04;94068.00;1779885;80;21115;-56
2020/12/24 05:22:21;;;;;;;103.95;64.42;;;;;;;3.45;81.80;94061.98;1909951;74;22526;-56
2020/12/24 05:24:49;;;;;;;104.03;66.92;;;;;;;3.37;81.74;94074.16;1849922;77;21470;-55
2020/12/24 05:27:21;;;;;;;92.95;58.92;;;;;;;3.37;81.87;94068.72;1849865;77;22062;-56
2020/12/24 05:29:51;;;;;;;86.32;55.28;;;;;;;3.35;82.09;94061.58;1849916;77;21065;-56
2020/12/24 05:32:29;;;;;;;116.75;69.62;;;;;;;3.32;82.31;94061.84;1820602;77;21049;-55
2020/12/24 05:35:08;;;;;;;105.17;62.43;;;;;;;3.30;82.28;94068.86;1865060;76;21051;-57
2020/12/24 05:37:37;;;;;;;102.62;66.47;;;;;;;3.31;82.39;94062.24;1884826;76;21025;-55
2020/12/24 05:40:27;;;;;;;105.32;68.02;;;;;;;3.35;82.53;94057.50;1884759;76;21191;-56
2020/12/24 05:43:00;;;;;;;120.37;81.02;;;;;;;3.41;82.76;94039.54;1884755;76;21123;-55
2020/12/24 05:45:31;;;;;;;148.25;99.70;;;;;;;3.51;83.04;94034.64;1884750;76;20905;-56
2020/12/24 05:48:11;;;;;;;98.47;60.03;;;;;;;3.60;83.00;94028.06;1807374;79;21084;-57
2020/12/24 05:50:43;;;;;;;53.70;38.53;;;;;;;3.66;82.95;94030.45;1807408;79;21067;-56
2020/12/24 05:53:13;;;;;;;32.13;24.67;;;;;;;3.77;83.92;94031.00;1826459;78;22245;-56
2020/12/24 05:55:43;;;;;;;22.37;17.95;;;;;;;4.01;85.25;94040.58;1807348;79;21150;-56
2020/12/24 05:58:11;;;;;;;46.20;30.35;;;;;;;4.37;86.09;94054.14;1826325;78;21056;-56
2020/12/24 06:00:41;;;;;;;94.65;58.65;;;;;;;4.68;86.40;94049.32;1807296;79;21072;-57
2020/12/24 06:03:18;;;;;;;97.12;58.30;;;;;;;4.90;85.14;94051.69;1824330;78;21140;-57
2020/12/24 06:06:01;;;;;;;74.15;48.35;;;;;;;4.92;83.40;94046.56;1806420;79;21148;-56
2020/12/24 06:08:33;;;;;;;68.22;43.20;;;;;;;4.85;83.36;94054.94;1825422;78;21107;-62
2020/12/24 06:11:08;;;;;;;55.67;34.70;;;;;;;4.86;83.15;94052.38;1806294;79;21130;-58
2020/12/24 06:13:43;;;;;;;59.45;36.77;;;;;;;4.84;82.95;94055.34;1825314;78;21068;-59
2020/12/24 06:16:14;;;;;;;53.92;36.55;;;;;;;4.86;83.09;94055.10;1806011;79;21183;-59
2020/12/24 06:18:46;;;;;;;43.95;30.60;;;;;;;4.91;83.06;94052.44;1825899;78;21359;-57
2020/12/24 06:21:17;;;;;;;45.20;31.07;;;;;;;4.95;83.02;94053.14;1806710;79;21173;-57
2020/12/24 06:23:59;;;;;;;45.58;30.08;;;;;;;4.94;82.89;94068.70;1825992;78;21536;-59
2020/12/24 06:26:39;;;;;;;62.90;38.10;;;;;;;4.95;83.01;94059.34;1807947;79;21072;-58
2020/12/24 06:29:07;;;;;;;74.35;46.80;;;;;;;5.00;83.29;94068.34;1809607;78;21043;-58
2020/12/24 06:31:38;;;;;;;52.58;35.28;;;;;;;5.10;83.70;94063.23;1807811;79;21342;-56
2020/12/24 06:34:30;;;;;;;64.75;39.40;;;;;;;5.27;83.65;94049.75;1798546;78;21182;-57
2020/12/24 06:37:16;;;;;;;80.03;55.03;;;;;;;5.35;83.32;94040.95;1783105;79;21056;-58
2020/12/24 06:39:51;;;;;;;84.20;54.45;;;;;;;5.44;83.05;94031.53;1788349;78;21147;-59
2020/12/24 06:42:40;;;;;;;94.42;56.95;;;;;;;5.53;82.72;94022.72;1811353;78;21485;-57
2020/12/24 06:45:32;;;;;;;88.47;61.15;;;;;;;5.57;82.58;94021.43;1768765;80;22026;-58
2020/12/24 06:51:04;;;;;;;102.82;63.50;;;;;;;5.79;81.85;94017.53;1881237;76;22213;-58
2020/12/24 06:53:33;;;;;;;108.52;70.08;;;;;;;5.71;81.54;94039.36;1816847;78;21507;-56
2020/12/24 06:56:28;;;;;;;88.37;54.45;;;;;;;5.68;81.21;94031.45;1823040;77;21250;-58
2020/12/24 06:59:03;;;;;;;58.52;39.03;;;;;;;5.66;81.08;94040.67;1845464;77;21575;-60
2020/12/24 07:01:35;;;;;;;72.00;44.90;;;;;;;5.66;81.28;94048.08;1832834;77;21491;-58
2020/12/24 07:04:05;;;;;;;59.13;40.95;;;;;;;5.64;81.50;94043.66;1842452;77;21155;-59
2020/12/24 07:06:49;;;;;;;106.63;64.72;;;;;;;5.66;81.81;94042.63;1842424;77;21166;-64
2020/12/24 07:09:26;;;;;;;95.55;54.25;;;;;;;5.76;82.13;94042.94;1840721;77;22375;-61
2020/12/24 07:11:57;;;;;;;110.28;69.10;;;;;;;5.82;82.00;94042.59;1837083;77;21083;-62
2020/12/24 07:14:37;;;;;;;114.28;67.55;;;;;;;5.83;81.74;94025.77;1820090;77;21147;-58
2020/12/24 07:17:20;;;;;;;131.12;81.17;;;;;;;5.97;81.88;94005.50;1888539;76;22681;-60
2020/12/24 07:19:50;;;;;;;120.13;71.05;;;;;;;6.04;81.84;94021.66;1757829;80;21223;-62
2020/12/24 07:22:21;;;;;;;94.03;63.13;;;;;;;6.14;81.66;94013.76;1760643;81;21197;-63
2020/12/24 07:25:00;;;;;;;71.72;43.68;;;;;;;6.26;81.54;94019.80;1786771;79;21163;-58
2020/12/24 07:27:29;;;;;;;61.13;34.80;;;;;;;6.32;81.49;94015.34;1754596;80;21645;-59
2020/12/24 07:29:58;;;;;;;74.10;49.10;;;;;;;6.41;81.62;94010.75;1742912;81;21131;-57
2020/12/24 07:32:33;;;;;;;42.58;29.57;;;;;;;6.61;81.54;94003.67;1774900;80;21255;-59
2020/12/24 07:35:16;;;;;;;108.00;68.20;;;;;;;6.79;80.90;94012.84;1737852;81;21941;-55
2020/12/24 07:37:49;;;;;;;141.97;93.52;;;;;;;6.94;80.24;94019.95;1781665;80;21178;-55
2020/12/24 07:40:19;;;;;;;89.72;51.65;;;;;;;6.98;79.68;94024.70;1746618;80;21135;-58
2020/12/24 07:42:48;;;;;;;67.82;42.38;;;;;;;6.97;79.11;94019.85;1767623;81;21143;-60
2020/12/24 07:45:23;;;;;;;43.38;29.42;;;;;;;7.06;79.14;94023.28;1797065;79;21596;-59
2020/12/24 07:48:02;;;;;;;19.15;14.15;;;;;;;7.15;79.02;94024.87;1840253;77;21213;-59
2020/12/24 07:50:36;;;;;;;10.50;9.40;;;;;;;7.33;78.60;94032.48;1832972;77;21172;-60
2020/12/24 07:53:11;;;;;;;9.33;6.80;;;;;;;7.64;78.08;94027.84;1809967;79;22225;-61
2020/12/24 07:55:39;;;;;;;10.98;8.30;;;;;;;7.99;76.94;94020.49;1835191;77;21127;-59
2020/12/24 07:58:13;;;;;;;9.40;6.90;;;;;;;8.33;76.41;94016.88;1779649;79;21139;-59
2020/12/24 08:00:47;;;;;;;16.95;13.28;;;;;;;8.55;75.41;94025.20;1763201;80;21179;-59
2020/12/24 08:03:18;;;;;;;15.83;12.37;;;;;;;8.76;74.05;94031.22;1825190;77;21183;-63
2020/12/24 08:06:05;;;;;;;16.32;13.35;;;;;;;8.96;73.67;94034.32;1810184;77;21059;-59
2020/12/24 08:08:36;;;;;;;10.23;7.87;;;;;;;9.12;72.94;94027.97;1822923;77;21043;-59
2020/12/24 08:11:12;;;;;;;8.25;6.58;;;;;;;9.28;71.29;94023.55;1839275;77;21155;-58
2020/12/24 08:13:43;;;;;;;10.80;9.40;;;;;;;9.45;70.52;94033.02;1807306;77;21392;-60
2020/12/24 08:16:16;;;;;;;15.38;11.45;;;;;;;9.62;70.40;94028.01;1827873;77;21021;-58
2020/12/24 08:18:52;;;;;;;9.53;7.85;;;;;;;9.69;69.90;94020.82;1791777;77;21174;-59
2020/12/24 08:21:28;;;;;;;6.97;6.10;;;;;;;9.78;69.69;94013.97;1807957;77;21472;-58
2020/12/24 08:24:09;;;;;;;9.40;8.43;;;;;;;9.82;69.25;94026.92;1812389;77;21111;-62
2020/12/24 08:26:39;;;;;;;11.50;9.23;;;;;;;9.87;69.33;94036.70;1821134;77;21355;-60
2020/12/24 08:29:16;;;;;;;8.40;7.30;;;;;;;9.94;69.33;94024.60;1750659;80;21168;-61
2020/12/24 08:31:56;;;;;;;6.50;5.90;;;;;;;9.98;68.94;94035.59;1765152;79;21103;-55
2020/12/24 08:34:25;;;;;;;7.42;6.47;;;;;;;10.03;69.01;94030.12;1750899;80;21246;-58
2020/12/24 08:36:53;;;;;;;8.43;7.47;;;;;;;10.05;69.17;94032.58;1764275;80;21059;-57
2020/12/24 08:39:22;;;;;;;8.68;7.87;;;;;;;10.06;69.12;94042.34;1782587;80;21184;-59
2020/12/24 08:42:00;;;;;;;7.12;6.35;;;;;;;10.06;69.04;94034.10;1773097;80;21024;-57
2020/12/24 08:44:32;;;;;;;5.40;4.90;;;;;;;10.09;68.86;94039.27;1754778;80;21080;-57
2020/12/24 08:47:06;;;;;;;6.92;6.17;;;;;;;10.15;68.61;94029.20;1775458;80;21075;-57
2020/12/24 08:49:43;;;;;;;7.10;5.62;;;;;;;10.18;68.68;94024.90;1779060;79;21183;-57
2020/12/24 08:52:17;;;;;;;9.03;6.97;;;;;;;10.19;68.61;94019.55;1765281;80;22446;-56
2020/12/24 08:55:06;;;;;;;12.10;9.28;;;;;;;10.20;68.82;94013.45;1793548;79;21266;-60
2020/12/24 08:57:36;;;;;;;7.92;6.75;;;;;;;10.22;68.92;94023.38;1768702;79;21601;-58
2020/12/24 09:00:07;;;;;;;9.03;7.17;;;;;;;10.24;68.81;94016.20;1765562;80;21257;-58
2020/12/24 09:02:37;;;;;;;8.18;6.85;;;;;;;10.24;68.87;94005.80;1761378;80;21119;-56
2020/12/24 09:05:06;;;;;;;9.83;7.78;;;;;;;10.27;68.86;94006.25;1787284;80;22171;-57
2020/12/24 09:07:43;;;;;;;7.80;7.00;;;;;;;10.32;68.73;94008.39;1759888;79;21194;-57
2020/12/24 09:10:25;;;;;;;8.55;7.08;;;;;;;10.36;68.50;94010.36;1769990;80;21103;-57
2020/12/24 09:13:01;;;;;;;11.43;7.85;;;;;;;10.38;68.62;93992.16;1766870;80;21122;-57
2020/12/24 09:15:29;;;;;;;9.45;7.30;;;;;;;10.44;68.60;94004.67;1791138;79;21643;-56
2020/12/24 09:18:01;;;;;;;9.45;7.80;;;;;;;10.40;68.55;93996.60;1768795;79;21532;-58
2020/12/24 09:20:33;;;;;;;10.55;8.88;;;;;;;10.41;68.56;93990.48;1726521;81;21584;-58
2020/12/24 09:23:08;;;;;;;9.35;7.85;;;;;;;10.43;68.69;93975.05;1711589;83;21589;-60
2020/12/24 09:25:42;;;;;;;15.13;11.80;;;;;;;10.47;68.66;93971.52;1767317;80;21148;-58
2020/12/24 09:28:26;;;;;;;7.17;6.33;;;;;;;10.44;68.68;93963.42;1761014;80;21148;-60
2020/12/24 09:31:00;;;;;;;5.85;5.25;;;;;;;10.42;68.49;93957.63;1759312;81;21365;-59
2020/12/24 09:33:30;;;;;;;8.90;6.33;;;;;;;10.41;68.38;93968.48;1709125;81;21231;-56
2020/12/24 09:35:59;;;;;;;5.50;5.00;;;;;;;10.43;68.48;93956.41;1732784;81;21132;-59
2020/12/24 09:38:29;;;;;;;8.50;7.60;;;;;;;10.45;68.33;93954.72;1760139;81;21215;-60
2020/12/24 09:40:58;;;;;;;11.10;8.78;;;;;;;10.50;68.39;93964.33;1763061;80;21198;-57
2020/12/24 09:43:28;;;;;;;8.33;7.33;;;;;;;10.53;68.46;93964.77;1760809;81;21268;-59
2020/12/24 09:45:57;;;;;;;10.90;8.58;;;;;;;10.58;68.43;93955.28;1772953;80;21664;-52
2020/12/24 09:48:26;;;;;;;12.75;9.38;;;;;;;10.62;68.32;93955.09;1791952;80;21182;-60
2020/12/24 09:50:54;;;;;;;6.75;5.75;;;;;;;10.65;68.34;93945.91;1792208;80;21408;-57
2020/12/24 09:53:24;;;;;;;10.20;9.20;;;;;;;10.67;68.04;93954.45;1765627;80;21171;-61
2020/12/24 09:55:52;;;;;;;7.80;6.78;;;;;;;10.70;68.22;93941.16;1759954;81;21503;-56
2020/12/24 09:58:22;;;;;;;11.60;7.97;;;;;;;10.71;68.24;93941.30;1760355;81;21659;-58
2020/12/24 10:00:51;;;;;;;13.38;9.75;;;;;;;10.69;68.36;93945.14;1760069;81;21206;-60
2020/12/24 10:03:20;;;;;;;5.83;5.33;;;;;;;10.69;68.50;93950.02;1759965;81;21184;-59
2020/12/24 10:05:50;;;;;;;6.90;6.25;;;;;;;10.68;68.05;93938.12;1760308;81;21633;-54
2020/12/24 10:08:18;;;;;;;8.43;6.12;;;;;;;10.68;68.39;93949.86;1759965;81;21447;-61
2020/12/24 10:10:47;;;;;;;7.78;6.25;;;;;;;10.69;68.44;93945.89;1759999;81;21152;-60
2020/12/24 10:13:16;;;;;;;8.05;7.22;;;;;;;10.70;68.46;93939.78;1750125;81;21121;-60
2020/12/24 10:15:48;;;;;;;9.95;7.37;;;;;;;10.68;68.54;93939.49;1702997;82;21096;-60
2020/12/24 10:18:20;;;;;;;9.83;7.60;;;;;;;10.66;68.62;93936.42;1748820;80;21148;-57
2020/12/24 10:20:49;;;;;;;7.47;6.35;;;;;;;10.65;68.68;93934.90;1737846;80;21552;-61
2020/12/24 10:23:18;;;;;;;9.95;7.55;;;;;;;10.63;68.65;93936.76;1753522;80;21634;-61
2020/12/24 10:25:46;;;;;;;8.83;7.58;;;;;;;10.56;68.82;93933.59;1755007;80;21686;-65
2020/12/24 10:28:15;;;;;;;11.68;8.38;;;;;;;10.56;69.03;93922.59;1748838;81;21560;-59
2020/12/24 10:30:46;;;;;;;10.15;8.63;;;;;;;10.57;68.99;93914.48;1706602;83;21138;-57
2020/12/24 10:33:15;;;;;;;10.23;8.50;;;;;;;10.58;68.97;93905.00;1762202;80;21615;-59
2020/12/24 10:35:45;;;;;;;13.90;9.20;;;;;;;10.57;69.03;93885.61;1767865;80;21171;-60
2020/12/24 10:38:13;;;;;;;15.93;10.85;;;;;;;10.54;69.14;93880.41;1753223;80;21166;-58
2020/12/24 10:40:42;;;;;;;12.15;8.20;;;;;;;10.54;69.21;93879.04;1772705;80;21107;-59
2020/12/24 10:43:11;;;;;;;10.63;8.75;;;;;;;10.52;69.32;93876.62;1724331;83;21654;-60
2020/12/24 10:45:41;;;;;;;11.93;9.33;;;;;;;10.50;69.33;93874.97;1779595;80;21454;-58
2020/12/24 10:48:10;;;;;;;9.55;7.87;;;;;;;10.49;69.49;93873.45;1727974;82;21214;-62
2020/12/24 10:50:39;;;;;;;12.37;9.18;;;;;;;10.49;69.46;93871.44;1725563;83;21203;-58
2020/12/24 10:53:09;;;;;;;16.82;10.23;;;;;;;10.52;69.12;93867.75;1723129;83;21795;-60
2020/12/24 10:55:38;;;;;;;12.55;7.78;;;;;;;10.53;68.97;93867.15;1728356;82;21160;-57
2020/12/24 10:58:07;;;;;;;13.10;9.48;;;;;;;10.56;68.77;93854.58;1749585;80;21261;-58
2020/12/24 11:00:36;;;;;;;11.60;9.28;;;;;;;10.59;68.87;93854.27;1750647;80;21182;-61
2020/12/24 11:03:06;;;;;;;11.25;9.08;;;;;;;10.55;68.89;93842.06;1763200;80;21183;-58
2020/12/24 11:05:37;;;;;;;10.72;8.28;;;;;;;10.49;69.12;93839.08;1788253;80;21685;-59
2020/12/24 11:08:07;;;;;;;11.93;8.55;;;;;;;10.44;69.15;93832.22;1774154;80;21195;-58
2020/12/24 11:10:36;;;;;;;11.63;9.43;;;;;;;10.43;69.20;93817.55;1773466;80;21247;-58
2020/12/24 11:13:05;;;;;;;12.33;11.03;;;;;;;10.41;69.26;93816.66;1762306;80;21226;-60
2020/12/24 11:15:34;;;;;;;10.58;8.60;;;;;;;10.40;69.45;93813.00;1726365;83;21210;-59
2020/12/24 11:18:03;;;;;;;11.45;10.13;;;;;;;10.37;69.47;93815.31;1781566;80;21186;-60
2020/12/24 11:20:32;;;;;;;9.85;8.45;;;;;;;10.37;69.56;93812.56;1768759;80;21202;-57
2020/12/24 11:23:00;;;;;;;7.17;6.47;;;;;;;10.35;69.69;93816.39;1772891;80;22073;-57
2020/12/24 11:25:30;;;;;;;10.13;9.08;;;;;;;10.33;69.74;93816.11;1772981;80;21180;-59
2020/12/24 11:28:00;;;;;;;10.43;7.08;;;;;;;10.32;69.62;93820.09;1773129;80;21159;-57
2020/12/24 11:30:29;;;;;;;7.90;6.25;;;;;;;10.35;69.37;93819.14;1772987;80;21541;-59
2020/12/24 11:32:58;;;;;;;10.13;7.03;;;;;;;10.39;69.27;93812.22;1773216;80;21127;-60
2020/12/24 11:35:26;;;;;;;7.10;6.30;;;;;;;10.43;69.29;93803.80;1760726;80;22216;-58
2020/12/24 11:37:57;;;;;;;8.78;6.50;;;;;;;10.44;69.25;93805.33;1746065;80;21197;-61
2020/12/24 11:40:27;;;;;;;4.50;4.10;;;;;;;10.48;69.17;93801.78;1761697;80;21193;-56
2020/12/24 11:42:56;;;;;;;6.10;5.30;;;;;;;10.52;68.84;93805.14;1752824;80;21606;-57
2020/12/24 11:45:26;;;;;;;10.70;6.90;;;;;;;10.63;68.53;93797.09;1741852;81;21174;-58